Braselton, Georgia
Current Conditions -  °F | °C
As of 3:55 PM on Thursday 20 Nov 2014 (Local Time) from KWDR Reporting Station
Clear Clear  
Wind Chill: 62°   Ceiling: Unl
Heat Index: 62°   Visibility: 10mi
Dew Point: 32°   Wind: 10mph
Humidity: 33%   Direction: 290°WNW
Pressure: 30.17"   Gusts: 18mph
Location:  34.11°N, 83.76°W
Report Text: KWDR 202055Z AUTO 29009G16KT 10SM CLR 17/00 A3017 RMK AO2 T01650001
Loading
Personal Weather Stations






























Interactive Weather Map New forecast layout! Learn more

10-Day Weather Forecast

Advertisements
Track Severe Weather on mobile